Loretto, Pennsylvania
Current Conditions -  °F | °C
As of 11:54 AM on Saturday 25 Oct 2014 (Local Time) from KJST Reporting Station
Overcast Overcast  
Wind Chill: 55°   Ceiling: 2000
Heat Index: 55°   Visibility: 10mi
Dew Point: 45°   Wind: 14mph
Humidity: 69%   Direction: 250°WSW
Pressure: 29.89"   Gusts: 23mph
Location:  40.5°N, 78.63°W
Report Text: KJST 251554Z AUTO 25012G20KT 10SM BKN020 OVC029 13/07 A2989 RMK AO2 SLP123 T01280072
Loading
Personal Weather Stations






























Interactive Weather Map
Tropical Storm Tracking
New forecast layout! Learn more

10-Day Weather Forecast

Advertisements
Track Severe Weather on mobile